Terminal Aerodrome Forecast
Issued by NWS

Home | Current Version | Previous Version | Text Only | Print | Product List | Glossary On
Versions: 1 2 3 4 5 6 7 8 9 10 11 12 13 14 15 16 17 18 19 20 21 22 23
762
FTUS41 KCAR 301859 AAA
TAFHUL
TAF AMD
KHUL 301859Z 3019/3118 20010KT P6SM SCT012
     FM302000 20009KT P6SM VCSH BKN045
     FM310100 21010KT P6SM BKN020
     FM310400 22009KT P6SM BKN005
     FM310600 23007KT 2SM BR BKN005
     FM311200 25006KT P6SM SCT050=

USA.gov is the U.S. government's official web portal to all federal, state and local government web resources and services.